createdAt,value
2023-02-19T00:03:15.592Z,6.62
2023-02-19T00:08:18.467Z,7.67
2023-02-19T00:13:21.371Z,5.73
2023-02-19T00:18:24.684Z,8.29
2023-02-19T00:23:28.305Z,6.80
2023-02-19T00:28:31.214Z,6.19
2023-02-19T00:33:34.216Z,7.76
2023-02-19T00:38:38.962Z,5.37
2023-02-19T00:43:41.764Z,7.52
2023-02-19T00:48:44.981Z,7.82
2023-02-19T00:53:47.980Z,5.15
2023-02-19T00:58:51.009Z,4.91
2023-02-19T01:03:54.101Z,8.16
2023-02-19T01:08:56.998Z,6.99
2023-02-19T01:14:01.182Z,4.49
2023-02-19T01:19:04.243Z,5.06
2023-02-19T01:24:07.242Z,8.54
2023-02-19T01:29:10.515Z,6.73
2023-02-19T01:34:13.353Z,4.88
2023-02-19T01:39:16.265Z,7.68
2023-02-19T01:44:19.573Z,7.40
2023-02-19T01:49:26.267Z,4.85
2023-02-19T01:54:36.215Z,5.29
2023-02-19T01:59:40.020Z,8.89
2023-02-19T02:04:43.169Z,7.81
2023-02-19T02:10:04.708Z,5.58
2023-02-19T02:15:08.226Z,4.75
2023-02-19T02:20:35.710Z,8.11
2023-02-19T02:26:08.415Z,6.97
2023-02-19T02:31:16.755Z,5.89
2023-02-19T02:36:29.100Z,6.96
2023-02-19T02:41:33.617Z,6.76
2023-02-19T02:46:40.538Z,7.77
2023-02-19T02:51:53.138Z,5.88
2023-02-19T02:56:58.190Z,8.23
2023-02-19T03:02:12.136Z,7.01
2023-02-19T03:07:15.477Z,6.57
2023-02-19T03:12:39.465Z,7.28
2023-02-19T03:18:11.459Z,5.66
2023-02-19T03:23:17.632Z,7.81
2023-02-19T03:28:42.966Z,5.82
2023-02-19T03:33:50.576Z,7.42
2023-02-19T03:39:00.973Z,6.09
2023-02-19T03:44:16.863Z,7.45
2023-02-19T03:49:56.946Z,6.07
2023-02-19T03:55:02.812Z,7.71
2023-02-19T04:00:21.072Z,5.70
2023-02-19T04:05:28.176Z,7.15
2023-02-19T04:10:32.181Z,7.75
2023-02-19T04:15:40.491Z,6.15
2023-02-19T04:20:46.309Z,8.27
2023-02-19T04:25:53.624Z,6.26
2023-02-19T04:30:56.545Z,7.79
2023-02-19T04:35:59.423Z,6.64
2023-02-19T04:41:02.227Z,6.50
2023-02-19T04:46:05.371Z,6.79
2023-02-19T04:51:09.517Z,5.76
2023-02-19T04:56:16.152Z,8.08
2023-02-19T05:01:19.308Z,6.34
2023-02-19T05:06:22.164Z,6.24
2023-02-19T05:11:25.067Z,8.07
2023-02-19T05:16:28.074Z,5.76
2023-02-19T05:21:31.094Z,7.76
2023-02-19T05:26:34.534Z,7.46
2023-02-19T05:31:37.489Z,5.68
2023-02-19T05:36:40.607Z,7.85
2023-02-19T05:41:43.513Z,5.83
2023-02-19T05:46:46.346Z,7.38
2023-02-19T05:51:52.492Z,7.13
2023-02-19T05:56:55.804Z,6.00
2023-02-19T06:01:58.606Z,7.40
2023-02-19T06:07:01.408Z,6.18
2023-02-19T06:12:04.618Z,7.47
2023-02-19T06:17:07.301Z,5.71
2023-02-19T06:22:10.536Z,7.92
2023-02-19T06:27:13.330Z,6.40
2023-02-19T06:32:17.112Z,7.39
2023-02-19T06:37:20.062Z,6.61
2023-02-19T06:42:22.982Z,5.91
2023-02-19T06:47:25.870Z,8.20
2023-02-19T06:52:28.784Z,6.18
2023-02-19T06:57:31.882Z,6.78
2023-02-19T07:02:34.683Z,7.14
2023-02-19T07:07:37.584Z,6.42
2023-02-19T07:12:40.381Z,7.80
2023-02-19T07:17:43.287Z,6.35
2023-02-19T07:22:46.315Z,7.95
2023-02-19T07:27:49.195Z,6.40
2023-02-19T07:32:52.114Z,8.10
2023-02-19T07:37:54.971Z,6.47
2023-02-19T07:42:59.702Z,7.57
2023-02-19T07:48:02.759Z,6.43
2023-02-19T07:53:06.124Z,7.61
2023-02-19T07:58:08.873Z,6.40
2023-02-19T08:03:12.307Z,7.75
2023-02-19T08:08:16.011Z,6.67
2023-02-19T08:13:19.416Z,7.94
2023-02-19T08:18:23.762Z,6.94
2023-02-19T08:23:27.946Z,7.64
2023-02-19T08:28:31.207Z,7.66
2023-02-19T08:33:34.532Z,7.33
2023-02-19T08:38:38.096Z,7.73
2023-02-19T08:43:42.022Z,7.66
2023-02-19T08:48:44.969Z,7.42
2023-02-19T08:53:47.989Z,7.32
2023-02-19T08:58:50.881Z,7.61
2023-02-19T09:03:53.706Z,6.88
2023-02-19T09:08:56.582Z,7.65
2023-02-19T09:13:59.484Z,7.40
2023-02-19T09:19:03.058Z,8.06
2023-02-19T09:24:09.722Z,7.77
2023-02-19T09:29:12.609Z,7.84
2023-02-19T09:34:15.505Z,8.69
2023-02-19T09:39:19.234Z,7.09
2023-02-19T09:44:29.607Z,8.92
2023-02-19T09:49:35.900Z,7.11
2023-02-19T09:54:40.444Z,6.13
2023-02-19T09:59:54.276Z,8.37
2023-02-19T10:04:57.756Z,7.32
2023-02-19T10:10:18.888Z,6.09
2023-02-19T10:15:38.116Z,7.31
2023-02-19T10:20:41.129Z,7.25
2023-02-19T10:25:54.580Z,6.21
2023-02-19T10:30:59.966Z,5.52
2023-02-19T10:36:16.263Z,5.17
2023-02-19T10:41:22.031Z,5.00
2023-02-19T10:46:28.834Z,4.97
2023-02-19T10:51:35.423Z,5.17
2023-02-19T10:56:40.880Z,5.36
2023-02-19T11:02:00.526Z,5.40
2023-02-19T11:07:17.405Z,5.49
2023-02-19T11:12:29.822Z,5.43
2023-02-19T11:17:33.293Z,5.28
2023-02-19T11:22:39.930Z,5.14
2023-02-19T11:28:07.388Z,5.08
2023-02-19T11:33:16.256Z,5.13
2023-02-19T11:38:20.254Z,5.14
2023-02-19T11:43:44.908Z,5.15
2023-02-19T11:49:11.673Z,5.17
2023-02-19T11:54:36.391Z,5.28
2023-02-19T11:59:59.358Z,5.30
2023-02-19T12:05:22.014Z,5.19
2023-02-19T12:10:49.710Z,5.21
2023-02-19T12:16:10.749Z,5.25
2023-02-19T12:21:35.557Z,5.39
2023-02-19T12:26:46.893Z,5.56
2023-02-19T12:32:13.518Z,5.57
2023-02-19T12:37:30.962Z,5.64
2023-02-19T12:42:50.806Z,5.50
2023-02-19T12:48:05.442Z,5.32
2023-02-19T12:53:19.206Z,5.20
2023-02-19T12:58:39.826Z,5.11
2023-02-19T13:03:52.555Z,5.02
2023-02-19T13:09:29.406Z,5.07
2023-02-19T13:15:04.214Z,5.19
2023-02-19T13:20:22.274Z,5.04
2023-02-19T13:25:46.570Z,4.84
2023-02-19T13:31:02.962Z,4.76
2023-02-19T13:36:10.708Z,4.73
2023-02-19T13:41:21.807Z,4.72
2023-02-19T13:46:25.651Z,4.61
2023-02-19T13:51:28.433Z,4.45
2023-02-19T13:56:34.492Z,4.33
2023-02-19T14:02:03.534Z,4.21
2023-02-19T14:07:06.322Z,4.13
2023-02-19T14:12:16.072Z,4.05
2023-02-19T14:17:45.967Z,3.99
2023-02-19T14:23:01.579Z,3.93
2023-02-19T14:28:10.486Z,3.92
2023-02-19T14:33:17.450Z,4.00
2023-02-19T14:38:30.512Z,4.07
2023-02-19T14:43:35.405Z,4.17
2023-02-19T14:48:43.648Z,4.23
2023-02-19T14:53:47.028Z,4.18
2023-02-19T14:59:28.011Z,4.07
2023-02-19T15:04:37.233Z,3.91
2023-02-19T15:09:45.487Z,3.78
2023-02-19T15:14:49.750Z,3.67
2023-02-19T15:19:53.181Z,3.68
2023-02-19T15:24:56.086Z,3.97
2023-02-19T15:29:58.893Z,4.42
2023-02-19T15:35:04.317Z,4.37
2023-02-19T15:40:08.395Z,4.00
2023-02-19T15:45:28.653Z,3.70
2023-02-19T15:50:37.600Z,3.38
2023-02-19T15:55:51.810Z,3.10
2023-02-19T16:00:58.539Z,2.85
2023-02-19T16:06:11.504Z,2.65
2023-02-19T16:11:23.214Z,2.48
2023-02-19T16:16:35.360Z,2.30
2023-02-19T16:21:38.794Z,2.16
2023-02-19T16:26:43.067Z,2.04
2023-02-19T16:31:55.163Z,1.95
2023-02-19T16:36:58.091Z,1.86
2023-02-19T16:42:02.233Z,1.74
2023-02-19T16:47:12.541Z,1.62
2023-02-19T16:52:17.117Z,1.50
2023-02-19T16:57:20.736Z,1.36
2023-02-19T17:02:25.202Z,1.22
2023-02-19T17:07:28.211Z,1.10
2023-02-19T17:12:31.117Z,0.97
2023-02-19T17:17:34.875Z,0.86
2023-02-19T17:22:37.741Z,0.79
2023-02-19T17:27:41.470Z,0.73
2023-02-19T17:32:44.467Z,1.04
2023-02-19T17:37:47.476Z,4.59
2023-02-19T17:42:50.707Z,3.54
2023-02-19T17:47:53.502Z,2.18
2023-02-19T17:52:56.402Z,1.52
2023-02-19T17:58:00.050Z,1.15
2023-02-19T18:03:03.940Z,0.97
2023-02-19T18:08:07.250Z,0.89
2023-02-19T18:13:10.667Z,0.86
2023-02-19T18:18:13.491Z,0.86
2023-02-19T18:23:16.584Z,0.88
2023-02-19T18:28:19.376Z,0.84
2023-02-19T18:33:22.385Z,0.79
2023-02-19T18:38:25.288Z,0.75
2023-02-19T18:43:28.291Z,0.74
2023-02-19T18:48:31.060Z,0.71
2023-02-19T18:53:33.845Z,0.69
2023-02-19T18:58:36.692Z,0.68
2023-02-19T19:03:39.640Z,0.69
2023-02-19T19:08:42.413Z,0.68
2023-02-19T19:13:46.339Z,2.49
2023-02-19T19:18:49.493Z,2.83
2023-02-19T19:23:52.343Z,1.85
2023-02-19T19:28:55.244Z,1.37
2023-02-19T19:33:58.158Z,1.07
2023-02-19T19:39:01.001Z,1.75
2023-02-19T19:44:08.463Z,3.30
2023-02-19T19:49:12.104Z,2.31
2023-02-19T19:54:15.521Z,1.80
2023-02-19T19:59:19.063Z,1.53
2023-02-19T20:04:23.371Z,1.41
2023-02-19T20:09:29.215Z,3.00
2023-02-19T20:14:32.335Z,3.28
2023-02-19T20:19:35.231Z,2.25
2023-02-19T20:24:38.134Z,1.84
2023-02-19T20:29:44.319Z,2.59
2023-02-19T20:34:48.146Z,4.32
2023-02-19T20:39:51.045Z,2.99
2023-02-19T20:44:53.846Z,2.32
2023-02-19T20:49:57.021Z,4.67
2023-02-19T20:54:59.960Z,5.17
2023-02-19T21:00:03.784Z,3.56
2023-02-19T21:05:06.996Z,2.83
2023-02-19T21:10:10.423Z,4.61
2023-02-19T21:15:14.948Z,3.63
2023-02-19T21:20:18.160Z,3.80
2023-02-19T21:25:21.166Z,4.74
2023-02-19T21:30:24.204Z,4.95
2023-02-19T21:35:27.283Z,4.86
2023-02-19T21:40:32.134Z,5.60
2023-02-19T21:45:34.966Z,5.33
2023-02-19T21:50:37.835Z,5.26
2023-02-19T21:55:42.907Z,5.78
2023-02-19T22:00:54.249Z,4.85
2023-02-19T22:05:57.296Z,6.51
2023-02-19T22:11:00.128Z,4.38
2023-02-19T22:16:03.633Z,5.61
2023-02-19T22:21:06.666Z,5.52
2023-02-19T22:26:09.827Z,4.73
2023-02-19T22:31:14.446Z,5.29
2023-02-19T22:36:20.145Z,5.58
2023-02-19T22:41:23.707Z,5.20
2023-02-19T22:46:29.497Z,5.25
2023-02-19T22:51:33.565Z,5.40
2023-02-19T22:56:36.345Z,5.71
2023-02-19T23:01:39.274Z,5.29
2023-02-19T23:06:44.660Z,6.49
2023-02-19T23:11:47.560Z,5.08
2023-02-19T23:16:50.485Z,6.52
2023-02-19T23:21:53.345Z,5.42
2023-02-19T23:26:56.156Z,6.04
2023-02-19T23:32:00.475Z,6.09
2023-02-19T23:37:03.589Z,5.52
2023-02-19T23:42:06.392Z,6.56
2023-02-19T23:47:09.187Z,5.71
2023-02-19T23:52:12.093Z,6.56
2023-02-19T23:57:15.300Z,6.18
